createdAt,value
2018-06-04T00:02:18.639Z,4.93
2018-06-04T00:04:46.817Z,5.20
2018-06-04T00:07:14.971Z,4.63
2018-06-04T00:09:43.130Z,5.08
2018-06-04T00:12:11.291Z,5.10
2018-06-04T00:14:39.437Z,4.50
2018-06-04T00:17:07.579Z,5.30
2018-06-04T00:19:35.768Z,4.70
2018-06-04T00:22:03.688Z,5.20
2018-06-04T00:24:31.839Z,4.80
2018-06-04T00:26:59.999Z,5.90
2018-06-04T00:29:28.172Z,4.93
2018-06-04T00:31:56.409Z,4.90
2018-06-04T00:34:24.551Z,5.07
2018-06-04T00:36:52.714Z,4.87
2018-06-04T00:39:20.887Z,5.20
2018-06-04T00:41:50.090Z,4.75
2018-06-04T00:44:18.242Z,4.97
2018-06-04T00:46:46.425Z,4.57
2018-06-04T00:49:14.574Z,5.23
2018-06-04T00:51:42.739Z,4.83
2018-06-04T00:54:10.934Z,4.90
2018-06-04T00:56:49.845Z,5.33
2018-06-04T00:59:18.004Z,5.00
2018-06-04T01:01:46.143Z,5.20
2018-06-04T01:04:14.303Z,5.35
2018-06-04T01:06:42.457Z,4.97
2018-06-04T01:09:10.720Z,5.20
2018-06-04T01:11:38.868Z,5.07
2018-06-04T01:14:07.046Z,5.23
2018-06-04T01:16:35.228Z,5.17
2018-06-04T01:19:03.455Z,4.87
2018-06-04T01:21:31.623Z,5.13
2018-06-04T01:23:59.781Z,5.80
2018-06-04T01:26:27.932Z,5.08
2018-06-04T01:28:56.107Z,5.10
2018-06-04T01:31:24.053Z,5.57
2018-06-04T01:33:52.223Z,5.83
2018-06-04T01:36:20.404Z,5.30
2018-06-04T01:38:48.567Z,4.80
2018-06-04T01:41:16.744Z,5.40
2018-06-04T01:43:44.905Z,5.40
2018-06-04T01:46:13.069Z,5.13
2018-06-04T01:48:41.244Z,5.70
2018-06-04T01:51:09.421Z,4.70
2018-06-04T01:53:37.586Z,5.37
2018-06-04T01:56:05.792Z,4.93
2018-06-04T01:58:33.915Z,5.00
2018-06-04T02:01:02.076Z,5.37
2018-06-04T02:03:30.243Z,5.20
2018-06-04T02:05:58.187Z,5.43
2018-06-04T02:08:26.336Z,5.13
2018-06-04T02:10:54.539Z,5.77
2018-06-04T02:13:22.741Z,5.30
2018-06-04T02:15:50.874Z,6.00
2018-06-04T02:18:19.048Z,5.03
2018-06-04T02:20:47.196Z,5.78
2018-06-04T02:23:15.360Z,5.30
2018-06-04T02:25:43.520Z,5.60
2018-06-04T02:28:11.711Z,5.47
2018-06-04T02:30:39.873Z,5.67
2018-06-04T02:33:08.061Z,5.17
2018-06-04T02:35:36.187Z,5.33
2018-06-04T02:38:04.372Z,5.33
2018-06-04T02:40:32.329Z,5.67
2018-06-04T02:43:00.289Z,5.37
2018-06-04T02:45:28.443Z,6.07
2018-06-04T02:47:56.618Z,5.83
2018-06-04T02:50:24.793Z,5.87
2018-06-04T02:52:52.957Z,5.33
2018-06-04T02:55:21.124Z,5.40
2018-06-04T02:57:49.417Z,4.83
2018-06-04T03:00:17.596Z,4.73
2018-06-04T03:02:45.805Z,5.20
2018-06-04T03:05:13.972Z,5.65
2018-06-04T03:07:42.157Z,4.73
2018-06-04T03:10:10.093Z,5.10
2018-06-04T03:12:38.251Z,5.20
2018-06-04T03:15:06.403Z,5.07
2018-06-04T03:17:34.599Z,5.73
2018-06-04T03:20:02.748Z,5.30
2018-06-04T03:22:30.933Z,5.63
2018-06-04T03:24:59.063Z,5.27
2018-06-04T03:27:27.243Z,5.20
2018-06-04T03:29:55.162Z,5.00
2018-06-04T03:32:23.326Z,5.73
2018-06-04T03:34:51.570Z,5.60
2018-06-04T03:37:19.672Z,5.22
2018-06-04T03:39:47.847Z,5.33
2018-06-04T03:42:15.997Z,5.67
2018-06-04T03:44:44.182Z,5.40
2018-06-04T03:47:12.364Z,5.33
2018-06-04T03:49:40.532Z,5.47
2018-06-04T03:52:08.754Z,4.77
2018-06-04T03:54:36.868Z,5.23
2018-06-04T03:57:05.060Z,5.67
2018-06-04T03:59:33.215Z,5.35
2018-06-04T04:02:01.401Z,5.37
2018-06-04T04:04:29.593Z,5.33
2018-06-04T04:06:57.781Z,6.07
2018-06-04T04:09:25.927Z,6.10
2018-06-04T04:11:54.095Z,5.40
2018-06-04T04:14:22.259Z,5.20
2018-06-04T04:16:50.431Z,5.40
2018-06-04T04:19:18.577Z,5.30
2018-06-04T04:21:46.760Z,5.87
2018-06-04T04:24:14.931Z,5.50
2018-06-04T04:26:43.120Z,4.80
2018-06-04T04:29:11.347Z,5.30
2018-06-04T04:31:39.485Z,5.73
2018-06-04T04:34:07.652Z,5.47
2018-06-04T04:36:35.808Z,6.40
2018-06-04T04:39:06.508Z,6.97
2018-06-04T04:41:34.698Z,5.67
2018-06-04T04:44:02.857Z,5.95
2018-06-04T04:46:31.026Z,5.67
2018-06-04T04:48:59.216Z,5.90
2018-06-04T04:51:27.348Z,4.50
2018-06-04T04:53:55.539Z,6.33
2018-06-04T04:56:23.728Z,6.10
2018-06-04T04:58:51.916Z,6.50
2018-06-04T05:01:20.103Z,6.67
2018-06-04T05:03:48.272Z,6.80
2018-06-04T05:06:16.424Z,6.65
2018-06-04T05:08:44.575Z,5.77
2018-06-04T05:11:12.751Z,5.87
2018-06-04T05:13:40.916Z,5.27
2018-06-04T05:16:09.183Z,5.67
2018-06-04T05:18:37.319Z,5.33
2018-06-04T05:21:05.249Z,5.10
2018-06-04T05:23:33.489Z,6.47
2018-06-04T05:26:01.644Z,6.20
2018-06-04T05:28:29.885Z,6.00
2018-06-04T05:30:58.031Z,5.80
2018-06-04T05:33:26.169Z,5.90
2018-06-04T05:35:54.307Z,6.85
2018-06-04T05:38:22.468Z,6.30
2018-06-04T05:40:50.638Z,7.10
2018-06-04T05:43:18.797Z,6.70
2018-06-04T05:45:46.985Z,7.20
2018-06-04T05:48:16.312Z,6.67
2018-06-04T05:50:44.472Z,7.90
2018-06-04T05:53:12.630Z,7.73
2018-06-04T05:55:40.786Z,6.43
2018-06-04T05:58:08.971Z,7.23
2018-06-04T06:00:37.156Z,6.47
2018-06-04T06:03:05.284Z,7.40
2018-06-04T06:05:33.452Z,7.00
2018-06-04T06:08:01.607Z,8.20
2018-06-04T06:10:29.768Z,6.47
2018-06-04T06:12:57.925Z,7.30
2018-06-04T06:15:26.092Z,7.70
2018-06-04T06:17:54.264Z,7.37
2018-06-04T06:20:22.423Z,6.77
2018-06-04T06:22:50.620Z,7.78
2018-06-04T06:25:18.767Z,7.30
2018-06-04T06:27:46.936Z,6.70
2018-06-04T06:30:15.167Z,7.33
2018-06-04T06:32:43.324Z,7.50
2018-06-04T06:35:11.475Z,7.13
2018-06-04T06:37:39.907Z,7.80
2018-06-04T06:40:08.020Z,7.50
2018-06-04T06:42:36.164Z,7.20
2018-06-04T06:45:04.080Z,7.78
2018-06-04T06:47:32.268Z,7.47
2018-06-04T06:50:00.454Z,7.97
2018-06-04T06:52:28.600Z,7.30
2018-06-04T06:54:56.759Z,7.55
2018-06-04T06:57:24.944Z,7.60
2018-06-04T06:59:53.141Z,7.10
2018-06-04T07:02:21.316Z,6.90
2018-06-04T07:04:49.467Z,6.30
2018-06-04T07:07:17.737Z,7.03
2018-06-04T07:09:45.886Z,7.10
2018-06-04T07:12:14.074Z,7.90
2018-06-04T07:14:42.231Z,7.07
2018-06-04T07:17:10.468Z,7.80
2018-06-04T07:19:38.658Z,7.87
2018-06-04T07:22:06.822Z,7.20
2018-06-04T07:24:34.973Z,6.63
2018-06-04T07:29:03.499Z,7.10
2018-06-04T07:31:31.676Z,8.00
2018-06-04T07:33:59.819Z,6.67
2018-06-04T07:36:28.027Z,7.17
2018-06-04T07:38:56.186Z,7.03
2018-06-04T07:41:24.486Z,7.57
2018-06-04T07:43:52.587Z,7.07
2018-06-04T07:46:20.805Z,7.10
2018-06-04T07:48:48.972Z,6.90
2018-06-04T07:51:17.142Z,7.60
2018-06-04T07:53:45.290Z,7.43
2018-06-04T07:56:13.480Z,6.43
2018-06-04T07:58:41.643Z,6.97
2018-06-04T08:01:09.795Z,7.33
2018-06-04T08:03:37.957Z,6.62
2018-06-04T08:06:06.176Z,6.90
2018-06-04T08:08:35.221Z,6.10
2018-06-04T08:11:03.402Z,7.00
2018-06-04T08:13:31.560Z,5.90
2018-06-04T08:15:59.737Z,5.53
2018-06-04T08:18:27.915Z,6.53
2018-06-04T08:20:56.192Z,6.07
2018-06-04T08:23:24.348Z,6.10
2018-06-04T08:25:52.489Z,6.60
2018-06-04T08:28:20.675Z,6.10
2018-06-04T08:30:48.857Z,6.40
2018-06-04T08:33:17.060Z,6.03
2018-06-04T08:35:45.212Z,6.05
2018-06-04T08:38:13.368Z,6.63
2018-06-04T08:40:41.535Z,5.80
2018-06-04T08:43:09.685Z,5.60
2018-06-04T08:45:37.916Z,5.60
2018-06-04T08:48:06.012Z,6.03
2018-06-04T08:50:34.205Z,5.27
2018-06-04T08:53:02.379Z,6.13
2018-06-04T08:55:30.555Z,5.43
2018-06-04T08:57:58.748Z,5.95
2018-06-04T09:00:26.936Z,4.90
2018-06-04T09:02:55.092Z,5.00
2018-06-04T09:05:23.275Z,4.90
2018-06-04T09:07:51.436Z,4.63
2018-06-04T09:10:19.618Z,4.87
2018-06-04T09:12:47.768Z,3.90
2018-06-04T09:15:15.927Z,4.90
2018-06-04T09:17:44.115Z,5.13
2018-06-04T09:20:12.290Z,4.08
2018-06-04T09:22:40.473Z,4.63
2018-06-04T09:25:08.661Z,4.30
2018-06-04T09:27:36.848Z,3.90
2018-06-04T09:30:05.105Z,3.90
2018-06-04T09:32:33.297Z,4.60
2018-06-04T09:35:01.437Z,4.27
2018-06-04T09:37:29.601Z,4.70
2018-06-04T09:39:57.776Z,3.93
2018-06-04T09:42:25.911Z,4.07
2018-06-04T09:44:54.088Z,4.63
2018-06-04T09:47:22.251Z,4.43
2018-06-04T09:49:50.409Z,4.10
2018-06-04T09:52:18.580Z,4.30
2018-06-04T09:54:46.716Z,3.60
2018-06-04T09:57:14.659Z,3.80
2018-06-04T09:59:42.817Z,4.10
2018-06-04T10:02:11.028Z,4.37
2018-06-04T10:04:39.225Z,3.90
2018-06-04T10:07:07.408Z,4.27
2018-06-04T10:09:35.565Z,3.80
2018-06-04T10:12:03.758Z,3.83
2018-06-04T10:14:31.964Z,3.65
2018-06-04T10:17:00.115Z,3.57
2018-06-04T10:19:28.321Z,4.37
2018-06-04T10:21:56.547Z,3.57
2018-06-04T10:24:24.760Z,4.27
2018-06-04T10:26:52.960Z,4.13
2018-06-04T10:29:21.141Z,4.50
2018-06-04T10:31:49.317Z,4.10
2018-06-04T10:34:17.499Z,4.80
2018-06-04T10:36:45.706Z,4.45
2018-06-04T10:39:13.876Z,4.60
2018-06-04T10:41:42.058Z,4.80
2018-06-04T10:44:10.275Z,4.80
2018-06-04T10:46:38.502Z,5.20
2018-06-04T10:49:06.643Z,4.80
2018-06-04T10:51:42.259Z,5.43
2018-06-04T10:54:10.975Z,4.50
2018-06-04T10:56:39.156Z,4.90
2018-06-04T10:59:07.092Z,5.50
2018-06-04T11:01:35.260Z,5.63
2018-06-04T11:04:03.427Z,5.63
2018-06-04T11:06:31.599Z,5.47
2018-06-04T11:08:59.771Z,5.83
2018-06-04T11:11:27.961Z,5.90
2018-06-04T11:13:56.130Z,6.07
2018-06-04T11:16:24.308Z,5.23
2018-06-04T11:18:53.526Z,4.90
2018-06-04T11:21:21.656Z,5.30
2018-06-04T11:23:49.806Z,5.10
2018-06-04T11:26:18.020Z,5.90
2018-06-04T11:28:46.189Z,4.93
2018-06-04T11:31:14.347Z,5.50
2018-06-04T11:33:42.555Z,4.37
2018-06-04T11:36:10.736Z,4.67
2018-06-04T11:38:38.927Z,4.97
2018-06-04T11:41:07.092Z,5.30
2018-06-04T11:43:35.268Z,5.47
2018-06-04T11:48:35.984Z,5.53
2018-06-04T11:51:04.230Z,4.80
2018-06-04T11:53:32.493Z,4.58
2018-06-04T11:56:00.670Z,5.23
2018-06-04T11:58:28.815Z,4.83
2018-06-04T12:00:56.974Z,5.40
2018-06-04T12:03:25.156Z,4.62
2018-06-04T12:05:53.331Z,5.93
2018-06-04T12:08:21.487Z,4.80
2018-06-04T12:10:49.678Z,4.43
2018-06-04T12:13:17.929Z,4.27
2018-06-04T12:15:46.066Z,4.80
2018-06-04T12:18:14.252Z,4.50
2018-06-04T12:20:42.408Z,4.70
2018-06-04T12:23:10.612Z,4.57
2018-06-04T12:25:38.818Z,4.28
2018-06-04T12:28:06.997Z,5.60
2018-06-04T12:30:35.127Z,4.50
2018-06-04T12:33:03.271Z,4.87
2018-06-04T12:35:31.495Z,5.10
2018-06-04T12:37:59.681Z,5.07
2018-06-04T12:40:27.838Z,5.10
2018-06-04T12:42:55.984Z,4.30
2018-06-04T12:45:24.192Z,4.90
2018-06-04T12:47:52.343Z,4.20
2018-06-04T12:50:20.523Z,4.10
2018-06-04T12:52:48.695Z,4.03
2018-06-04T12:55:16.859Z,4.20
2018-06-04T12:57:45.058Z,4.30
2018-06-04T13:00:13.255Z,4.10
2018-06-04T13:02:41.404Z,4.63
2018-06-04T13:05:09.564Z,3.97
2018-06-04T13:07:37.753Z,4.80
2018-06-04T13:10:05.932Z,4.40
2018-06-04T13:12:34.156Z,4.30
2018-06-04T13:15:02.388Z,3.97
2018-06-04T13:17:30.551Z,3.90
2018-06-04T13:19:58.764Z,4.67
2018-06-04T13:22:26.951Z,4.57
2018-06-04T13:24:55.156Z,4.40
2018-06-04T13:27:23.322Z,4.10
2018-06-04T13:29:51.514Z,4.37
2018-06-04T13:32:19.656Z,4.73
2018-06-04T13:34:47.823Z,4.63
2018-06-04T13:37:15.998Z,4.00
2018-06-04T13:39:44.166Z,3.73
2018-06-04T13:42:12.120Z,4.70
2018-06-04T13:44:40.295Z,4.90
2018-06-04T13:47:08.467Z,5.40
2018-06-04T13:49:36.650Z,4.10
2018-06-04T13:52:04.807Z,4.90
2018-06-04T13:54:32.963Z,4.37
2018-06-04T13:57:01.133Z,4.77
2018-06-04T13:59:29.299Z,4.37
2018-06-04T14:01:57.555Z,3.97
2018-06-04T14:04:25.744Z,4.30
2018-06-04T14:06:53.887Z,4.10
2018-06-04T14:09:22.059Z,4.07
2018-06-04T14:11:50.242Z,3.73
2018-06-04T14:14:18.223Z,4.20
2018-06-04T14:16:46.359Z,3.97
2018-06-04T14:19:14.536Z,3.90
2018-06-04T14:21:42.685Z,4.27
2018-06-04T14:24:11.042Z,4.27
2018-06-04T14:26:39.218Z,3.98
2018-06-04T14:29:07.402Z,4.27
2018-06-04T14:31:35.604Z,4.20
2018-06-04T14:34:03.773Z,3.97
2018-06-04T14:36:31.958Z,4.30
2018-06-04T14:39:00.135Z,4.50
2018-06-04T14:41:28.321Z,4.33
2018-06-04T14:43:56.534Z,4.43
2018-06-04T14:46:24.712Z,4.87
2018-06-04T14:48:52.871Z,4.70
2018-06-04T14:51:21.123Z,5.00
2018-06-04T14:53:49.048Z,4.53
2018-06-04T14:56:17.468Z,4.83
2018-06-04T14:58:45.391Z,4.67
2018-06-04T15:01:13.540Z,4.60
2018-06-04T15:03:41.709Z,5.17
2018-06-04T15:06:09.863Z,4.43
2018-06-04T15:08:38.006Z,4.47
2018-06-04T15:11:06.221Z,5.00
2018-06-04T15:13:34.358Z,5.40
2018-06-04T15:16:02.520Z,4.87
2018-06-04T15:18:30.652Z,4.80
2018-06-04T15:20:58.845Z,4.80
2018-06-04T15:23:27.027Z,4.50
2018-06-04T15:25:55.206Z,4.80
2018-06-04T15:28:23.372Z,5.03
2018-06-04T15:30:51.543Z,4.47
2018-06-04T15:33:19.741Z,4.93
2018-06-04T15:35:47.882Z,4.17
2018-06-04T15:38:16.064Z,5.00
2018-06-04T15:40:44.252Z,4.70
2018-06-04T15:43:12.431Z,5.00
2018-06-04T15:45:40.603Z,5.17
2018-06-04T15:48:08.767Z,4.37
2018-06-04T15:50:37.072Z,4.47
2018-06-04T15:59:05.424Z,4.73
2018-06-04T16:01:33.591Z,4.73
2018-06-04T16:04:01.532Z,4.80
2018-06-04T16:06:29.723Z,4.70
2018-06-04T16:08:57.686Z,4.97
2018-06-04T16:11:25.837Z,4.83
2018-06-04T16:13:53.991Z,4.40
2018-06-04T16:16:22.159Z,5.27
2018-06-04T16:18:50.341Z,5.47
2018-06-04T16:21:19.143Z,4.50
2018-06-04T16:23:47.316Z,5.73
2018-06-04T16:26:15.543Z,5.00
2018-06-04T16:28:43.723Z,4.90
2018-06-04T16:31:11.904Z,5.80
2018-06-04T16:33:40.120Z,4.90
2018-06-04T16:36:08.265Z,5.00
2018-06-04T16:38:36.414Z,5.50
2018-06-04T16:41:04.604Z,4.60
2018-06-04T16:43:32.761Z,5.40
2018-06-04T16:46:00.952Z,5.20
2018-06-04T16:48:29.120Z,4.83
2018-06-04T16:50:57.408Z,5.53
2018-06-04T16:53:25.658Z,4.53
2018-06-04T16:55:53.822Z,4.45
2018-06-04T16:58:21.982Z,5.30
2018-06-04T17:00:50.202Z,4.87
2018-06-04T17:03:18.375Z,5.20
2018-06-04T17:05:46.548Z,5.42
2018-06-04T17:08:14.732Z,5.43
2018-06-04T17:10:42.884Z,4.97
2018-06-04T17:13:11.059Z,4.50
2018-06-04T17:15:39.257Z,4.80
2018-06-04T17:18:07.472Z,6.10
2018-06-04T17:20:35.653Z,5.97
2018-06-04T17:23:03.821Z,5.77
2018-06-04T17:25:32.375Z,5.60
2018-06-04T17:28:00.562Z,5.55
2018-06-04T17:30:28.740Z,5.60
2018-06-04T17:32:56.918Z,5.47
2018-06-04T17:35:25.103Z,5.00
2018-06-04T17:37:53.274Z,5.40
2018-06-04T17:40:21.424Z,5.57
2018-06-04T17:42:49.578Z,5.17
2018-06-04T17:45:17.772Z,5.40
2018-06-04T17:47:45.942Z,4.60
2018-06-04T17:50:14.164Z,5.45
2018-06-04T17:52:42.098Z,5.45
2018-06-04T17:55:10.321Z,5.47
2018-06-04T17:57:38.474Z,5.77
2018-06-04T18:09:02.526Z,5.07
2018-06-04T18:11:30.735Z,5.50
2018-06-04T18:13:58.902Z,5.20
2018-06-04T18:16:27.138Z,5.25
2018-06-04T18:18:55.849Z,6.17
2018-06-04T18:21:24.009Z,5.93
2018-06-04T18:23:52.201Z,5.70
2018-06-04T18:29:04.926Z,5.30
2018-06-04T18:31:33.111Z,5.80
2018-06-04T18:34:01.340Z,6.13
2018-06-04T18:36:29.518Z,5.70
2018-06-04T18:38:57.682Z,5.83
2018-06-04T18:41:25.860Z,6.00
2018-06-04T18:43:54.017Z,5.50
2018-06-04T18:46:22.203Z,5.10
2018-06-04T18:48:50.392Z,5.87
2018-06-04T18:51:18.548Z,5.60
2018-06-04T18:53:46.764Z,5.20
2018-06-04T18:56:15.039Z,5.50
2018-06-04T18:58:43.213Z,5.65
2018-06-04T19:01:11.148Z,5.60
2018-06-04T19:03:39.426Z,5.63
2018-06-04T19:06:07.604Z,5.58
2018-06-04T19:08:35.886Z,5.63
2018-06-04T19:11:04.027Z,5.87
2018-06-04T19:13:32.306Z,5.23
2018-06-04T19:16:00.566Z,5.30
2018-06-04T19:18:28.794Z,5.33
2018-06-04T19:20:57.111Z,4.50
2018-06-04T19:23:25.394Z,5.40
2018-06-04T19:25:53.648Z,5.43
2018-06-04T19:28:21.887Z,5.00
2018-06-04T19:39:07.180Z,5.60
2018-06-04T19:41:35.327Z,5.10
2018-06-04T19:44:04.249Z,5.37
2018-06-04T19:46:32.448Z,5.78
2018-06-04T19:49:00.624Z,5.33
2018-06-04T19:51:28.789Z,4.67
2018-06-04T19:53:56.994Z,5.50
2018-06-04T19:56:25.208Z,5.40
2018-06-04T19:58:53.364Z,5.40
2018-06-04T20:01:21.551Z,5.30
2018-06-04T20:03:49.754Z,5.03
2018-06-04T20:06:17.904Z,5.97
2018-06-04T20:08:46.072Z,6.10
2018-06-04T20:11:14.317Z,5.80
2018-06-04T20:13:42.240Z,6.03
2018-06-04T20:16:10.409Z,5.50
2018-06-04T20:18:38.579Z,5.80
2018-06-04T20:21:06.782Z,5.90
2018-06-04T20:23:34.951Z,5.40
2018-06-04T20:26:03.148Z,6.30
2018-06-04T20:28:31.348Z,5.80
2018-06-04T20:30:59.520Z,5.30
2018-06-04T20:33:27.703Z,5.55
2018-06-04T20:35:55.892Z,5.30
2018-06-04T20:38:24.076Z,5.60
2018-06-04T20:40:52.227Z,5.73
2018-06-04T20:43:20.469Z,6.13
2018-06-04T20:45:48.679Z,5.63
2018-06-04T20:48:17.020Z,6.03
2018-06-04T20:50:45.174Z,5.40
2018-06-04T20:53:13.351Z,5.80
2018-06-04T20:55:41.559Z,5.77
2018-06-04T20:58:09.482Z,5.83
2018-06-04T21:00:37.670Z,6.07
2018-06-04T21:03:07.656Z,5.63
2018-06-04T21:05:35.853Z,5.83
2018-06-04T21:08:04.050Z,5.67
2018-06-04T21:10:32.203Z,6.07
2018-06-04T21:13:00.385Z,5.20
2018-06-04T21:15:28.542Z,5.93
2018-06-04T21:17:56.823Z,5.50
2018-06-04T21:20:25.011Z,6.33
2018-06-04T21:22:53.179Z,6.13
2018-06-04T21:25:21.351Z,5.70
2018-06-04T21:27:49.536Z,6.20
2018-06-04T21:30:20.843Z,5.67
2018-06-04T21:32:49.038Z,5.93
2018-06-04T21:35:17.197Z,6.77
2018-06-04T21:37:45.358Z,6.03
2018-06-04T21:40:13.541Z,5.97
2018-06-04T21:42:41.731Z,5.40
2018-06-04T21:45:09.944Z,6.00
2018-06-04T21:47:38.092Z,5.57
2018-06-04T21:50:06.547Z,6.15
2018-06-04T21:52:34.751Z,6.43
2018-06-04T21:55:02.955Z,5.93
2018-06-04T21:57:31.132Z,5.80
2018-06-04T21:59:59.975Z,5.97
2018-06-04T22:02:28.153Z,6.13
2018-06-04T22:04:56.329Z,5.80
2018-06-04T22:07:24.487Z,6.70
2018-06-04T22:09:52.689Z,6.00
2018-06-04T22:12:20.879Z,5.97
2018-06-04T22:14:49.074Z,5.60
2018-06-04T22:17:17.272Z,6.13
2018-06-04T22:19:45.461Z,5.60
2018-06-04T22:22:13.659Z,5.67
2018-06-04T22:24:41.804Z,6.37
2018-06-04T22:27:10.020Z,6.30
2018-06-04T22:29:38.166Z,6.50
2018-06-04T22:32:06.351Z,5.87
2018-06-04T22:34:34.512Z,5.97
2018-06-04T22:37:02.684Z,6.33
2018-06-04T22:39:30.839Z,6.23
2018-06-04T22:41:59.012Z,6.80
2018-06-04T22:44:27.183Z,6.92
2018-06-04T22:46:55.347Z,6.60
2018-06-04T22:49:23.555Z,6.10
2018-06-04T22:51:57.522Z,6.63
2018-06-04T22:59:04.671Z,6.50
2018-06-04T23:01:32.867Z,6.17
2018-06-04T23:04:01.057Z,6.50
2018-06-04T23:06:29.227Z,6.60
2018-06-04T23:09:03.524Z,6.93
2018-06-04T23:11:31.692Z,6.30
2018-06-04T23:13:59.858Z,6.77
2018-06-04T23:16:28.083Z,6.60
2018-06-04T23:18:56.262Z,6.90
2018-06-04T23:21:24.204Z,6.77
2018-06-04T23:23:52.359Z,7.10
2018-06-04T23:26:20.531Z,6.50
2018-06-04T23:28:48.691Z,6.60
2018-06-04T23:31:16.869Z,6.50
2018-06-04T23:33:45.051Z,6.33
2018-06-04T23:36:13.260Z,6.50
2018-06-04T23:38:41.419Z,6.67
2018-06-04T23:41:09.601Z,6.30
2018-06-04T23:43:37.798Z,7.00
2018-06-04T23:46:05.992Z,6.87
2018-06-04T23:48:34.166Z,7.07
2018-06-04T23:51:02.352Z,7.27
2018-06-04T23:53:30.550Z,7.10
2018-06-04T23:55:58.721Z,6.77
2018-06-04T23:58:26.892Z,7.33
